sensor_id;sensor_type;location;lat;lon;timestamp;P1;durP1;ratioP1;P2;durP2;ratioP2
36061;SDS011;22123;52.412;20.970;2023-08-21T00:01:28;5.68;;;3.33;;
36061;SDS011;22123;52.412;20.970;2023-08-21T00:03:57;4.60;;;2.90;;
36061;SDS011;22123;52.412;20.970;2023-08-21T00:06:23;3.80;;;3.17;;
36061;SDS011;22123;52.412;20.970;2023-08-21T00:08:49;3.75;;;2.58;;
36061;SDS011;22123;52.412;20.970;2023-08-21T00:11:16;4.00;;;2.75;;
36061;SDS011;22123;52.412;20.970;2023-08-21T00:16:07;4.32;;;2.70;;
36061;SDS011;22123;52.412;20.970;2023-08-21T00:18:33;5.78;;;3.42;;
36061;SDS011;22123;52.412;20.970;2023-08-21T00:20:59;5.38;;;3.13;;
36061;SDS011;22123;52.412;20.970;2023-08-21T00:25:50;4.25;;;2.92;;
36061;SDS011;22123;52.412;20.970;2023-08-21T00:28:16;4.40;;;3.33;;
36061;SDS011;22123;52.412;20.970;2023-08-21T00:30:42;5.57;;;3.45;;
36061;SDS011;22123;52.412;20.970;2023-08-21T00:33:08;5.13;;;3.30;;
36061;SDS011;22123;52.412;20.970;2023-08-21T00:35:34;6.88;;;3.47;;
36061;SDS011;22123;52.412;20.970;2023-08-21T00:40:25;4.63;;;3.03;;
36061;SDS011;22123;52.412;20.970;2023-08-21T00:42:51;6.43;;;3.47;;
36061;SDS011;22123;52.412;20.970;2023-08-21T00:47:43;5.03;;;3.33;;
36061;SDS011;22123;52.412;20.970;2023-08-21T00:50:09;6.30;;;3.20;;
36061;SDS011;22123;52.412;20.970;2023-08-21T00:52:35;4.63;;;3.53;;
36061;SDS011;22123;52.412;20.970;2023-08-21T00:55:02;5.85;;;3.58;;
36061;SDS011;22123;52.412;20.970;2023-08-21T00:57:28;5.70;;;3.15;;
36061;SDS011;22123;52.412;20.970;2023-08-21T00:59:55;6.72;;;4.13;;
36061;SDS011;22123;52.412;20.970;2023-08-21T01:02:20;4.75;;;2.95;;
36061;SDS011;22123;52.412;20.970;2023-08-21T01:07:13;4.68;;;3.28;;
36061;SDS011;22123;52.412;20.970;2023-08-21T01:09:40;4.60;;;2.53;;
36061;SDS011;22123;52.412;20.970;2023-08-21T01:12:18;7.65;;;3.25;;
36061;SDS011;22123;52.412;20.970;2023-08-21T01:14:54;6.53;;;3.10;;
36061;SDS011;22123;52.412;20.970;2023-08-21T01:17:22;4.18;;;3.33;;
36061;SDS011;22123;52.412;20.970;2023-08-21T01:19:49;4.57;;;3.33;;
36061;SDS011;22123;52.412;20.970;2023-08-21T01:22:17;5.45;;;3.38;;
36061;SDS011;22123;52.412;20.970;2023-08-21T01:27:10;5.50;;;3.13;;
36061;SDS011;22123;52.412;20.970;2023-08-21T01:29:37;4.13;;;3.53;;
36061;SDS011;22123;52.412;20.970;2023-08-21T01:34:35;5.07;;;3.33;;
36061;SDS011;22123;52.412;20.970;2023-08-21T01:37:03;4.15;;;3.15;;
36061;SDS011;22123;52.412;20.970;2023-08-21T01:39:31;4.60;;;3.20;;
36061;SDS011;22123;52.412;20.970;2023-08-21T01:41:57;6.22;;;3.40;;
36061;SDS011;22123;52.412;20.970;2023-08-21T01:44:23;4.60;;;2.67;;
36061;SDS011;22123;52.412;20.970;2023-08-21T01:46:49;4.55;;;3.22;;
36061;SDS011;22123;52.412;20.970;2023-08-21T01:49:15;4.68;;;3.22;;
36061;SDS011;22123;52.412;20.970;2023-08-21T01:51:41;3.40;;;2.78;;
36061;SDS011;22123;52.412;20.970;2023-08-21T01:54:07;4.07;;;3.25;;
36061;SDS011;22123;52.412;20.970;2023-08-21T01:58:58;4.85;;;3.53;;
36061;SDS011;22123;52.412;20.970;2023-08-21T02:01:24;4.07;;;2.88;;
36061;SDS011;22123;52.412;20.970;2023-08-21T02:03:50;6.50;;;3.10;;
36061;SDS011;22123;52.412;20.970;2023-08-21T02:06:16;4.65;;;3.35;;
36061;SDS011;22123;52.412;20.970;2023-08-21T02:11:08;5.05;;;3.25;;
36061;SDS011;22123;52.412;20.970;2023-08-21T02:13:33;6.47;;;3.40;;
36061;SDS011;22123;52.412;20.970;2023-08-21T02:15:59;5.38;;;2.85;;
36061;SDS011;22123;52.412;20.970;2023-08-21T02:20:51;3.80;;;3.10;;
36061;SDS011;22123;52.412;20.970;2023-08-21T02:23:17;5.38;;;3.45;;
36061;SDS011;22123;52.412;20.970;2023-08-21T02:25:43;6.28;;;3.75;;
36061;SDS011;22123;52.412;20.970;2023-08-21T02:28:08;5.88;;;3.25;;
36061;SDS011;22123;52.412;20.970;2023-08-21T02:30:34;5.97;;;3.03;;
36061;SDS011;22123;52.412;20.970;2023-08-21T02:33:00;6.75;;;4.00;;
36061;SDS011;22123;52.412;20.970;2023-08-21T02:35:26;3.95;;;3.35;;
36061;SDS011;22123;52.412;20.970;2023-08-21T02:37:52;4.32;;;3.40;;
36061;SDS011;22123;52.412;20.970;2023-08-21T02:40:18;3.22;;;2.92;;
36061;SDS011;22123;52.412;20.970;2023-08-21T02:42:44;4.90;;;4.10;;
36061;SDS011;22123;52.412;20.970;2023-08-21T02:47:36;5.75;;;2.75;;
36061;SDS011;22123;52.412;20.970;2023-08-21T02:50:03;5.47;;;3.30;;
36061;SDS011;22123;52.412;20.970;2023-08-21T02:52:30;4.90;;;2.25;;
36061;SDS011;22123;52.412;20.970;2023-08-21T02:54:56;4.03;;;3.20;;
36061;SDS011;22123;52.412;20.970;2023-08-21T02:57:23;5.35;;;3.20;;
36061;SDS011;22123;52.412;20.970;2023-08-21T02:59:50;3.50;;;2.58;;
36061;SDS011;22123;52.412;20.970;2023-08-21T03:02:16;3.25;;;2.95;;
36061;SDS011;22123;52.412;20.970;2023-08-21T03:04:42;4.43;;;2.85;;
36061;SDS011;22123;52.412;20.970;2023-08-21T03:07:08;4.40;;;3.45;;
36061;SDS011;22123;52.412;20.970;2023-08-21T03:09:34;4.63;;;3.58;;
36061;SDS011;22123;52.412;20.970;2023-08-21T03:12:01;6.82;;;2.78;;
36061;SDS011;22123;52.412;20.970;2023-08-21T03:16:52;6.03;;;2.30;;
36061;SDS011;22123;52.412;20.970;2023-08-21T03:21:44;4.57;;;3.15;;
36061;SDS011;22123;52.412;20.970;2023-08-21T03:24:10;3.72;;;3.08;;
36061;SDS011;22123;52.412;20.970;2023-08-21T03:29:01;6.88;;;3.40;;
36061;SDS011;22123;52.412;20.970;2023-08-21T03:31:29;4.70;;;4.05;;
36061;SDS011;22123;52.412;20.970;2023-08-21T03:33:55;5.15;;;2.33;;
36061;SDS011;22123;52.412;20.970;2023-08-21T03:38:46;7.80;;;3.97;;
36061;SDS011;22123;52.412;20.970;2023-08-21T03:43:38;4.57;;;3.38;;
36061;SDS011;22123;52.412;20.970;2023-08-21T03:48:29;4.65;;;2.85;;
36061;SDS011;22123;52.412;20.970;2023-08-21T03:53:21;3.33;;;2.85;;
36061;SDS011;22123;52.412;20.970;2023-08-21T03:55:46;3.28;;;2.58;;
36061;SDS011;22123;52.412;20.970;2023-08-21T04:00:39;4.30;;;3.38;;
36061;SDS011;22123;52.412;20.970;2023-08-21T04:03:13;5.00;;;3.25;;
36061;SDS011;22123;52.412;20.970;2023-08-21T04:08:04;5.45;;;3.38;;
36061;SDS011;22123;52.412;20.970;2023-08-21T04:12:57;4.13;;;2.72;;
36061;SDS011;22123;52.412;20.970;2023-08-21T04:15:23;4.25;;;2.55;;
36061;SDS011;22123;52.412;20.970;2023-08-21T04:20:16;4.13;;;2.67;;
36061;SDS011;22123;52.412;20.970;2023-08-21T04:22:41;4.30;;;3.45;;
36061;SDS011;22123;52.412;20.970;2023-08-21T04:27:33;4.28;;;2.80;;
36061;SDS011;22123;52.412;20.970;2023-08-21T04:29:59;5.78;;;3.00;;
36061;SDS011;22123;52.412;20.970;2023-08-21T04:34:50;6.00;;;3.78;;
36061;SDS011;22123;52.412;20.970;2023-08-21T04:37:16;3.03;;;2.67;;
36061;SDS011;22123;52.412;20.970;2023-08-21T04:39:43;14.52;;;3.40;;
36061;SDS011;22123;52.412;20.970;2023-08-21T04:42:09;4.78;;;2.95;;
36061;SDS011;22123;52.412;20.970;2023-08-21T04:47:18;6.10;;;3.22;;
36061;SDS011;22123;52.412;20.970;2023-08-21T04:49:47;9.60;;;3.60;;
36061;SDS011;22123;52.412;20.970;2023-08-21T04:52:14;7.45;;;3.85;;
36061;SDS011;22123;52.412;20.970;2023-08-21T04:54:40;7.03;;;4.22;;
36061;SDS011;22123;52.412;20.970;2023-08-21T04:57:13;7.75;;;5.15;;
36061;SDS011;22123;52.412;20.970;2023-08-21T04:59:40;5.18;;;4.15;;
36061;SDS011;22123;52.412;20.970;2023-08-21T05:02:07;6.28;;;3.70;;
36061;SDS011;22123;52.412;20.970;2023-08-21T05:07:00;6.85;;;3.28;;
36061;SDS011;22123;52.412;20.970;2023-08-21T05:09:25;5.47;;;3.90;;
36061;SDS011;22123;52.412;20.970;2023-08-21T05:11:51;6.43;;;3.47;;
36061;SDS011;22123;52.412;20.970;2023-08-21T05:14:17;4.50;;;3.20;;
36061;SDS011;22123;52.412;20.970;2023-08-21T05:16:43;6.93;;;3.83;;
36061;SDS011;22123;52.412;20.970;2023-08-21T05:19:09;8.57;;;5.65;;
36061;SDS011;22123;52.412;20.970;2023-08-21T05:21:35;4.72;;;3.90;;
36061;SDS011;22123;52.412;20.970;2023-08-21T05:24:02;5.80;;;4.72;;
36061;SDS011;22123;52.412;20.970;2023-08-21T05:26:28;6.32;;;4.28;;
36061;SDS011;22123;52.412;20.970;2023-08-21T05:28:54;5.03;;;4.45;;
36061;SDS011;22123;52.412;20.970;2023-08-21T05:31:20;6.80;;;3.65;;
36061;SDS011;22123;52.412;20.970;2023-08-21T05:33:46;4.20;;;3.42;;
36061;SDS011;22123;52.412;20.970;2023-08-21T05:36:11;6.22;;;4.55;;
36061;SDS011;22123;52.412;20.970;2023-08-21T05:38:37;6.38;;;3.65;;
36061;SDS011;22123;52.412;20.970;2023-08-21T05:41:04;5.15;;;4.05;;
36061;SDS011;22123;52.412;20.970;2023-08-21T05:43:30;7.20;;;4.60;;
36061;SDS011;22123;52.412;20.970;2023-08-21T05:45:56;5.75;;;4.30;;
36061;SDS011;22123;52.412;20.970;2023-08-21T05:48:23;7.22;;;4.80;;
36061;SDS011;22123;52.412;20.970;2023-08-21T05:50:52;7.35;;;4.75;;
36061;SDS011;22123;52.412;20.970;2023-08-21T05:53:18;5.10;;;3.17;;
36061;SDS011;22123;52.412;20.970;2023-08-21T05:55:44;6.53;;;4.20;;
36061;SDS011;22123;52.412;20.970;2023-08-21T05:58:10;6.55;;;4.00;;
36061;SDS011;22123;52.412;20.970;2023-08-21T06:00:38;7.82;;;4.35;;
36061;SDS011;22123;52.412;20.970;2023-08-21T06:03:04;6.57;;;3.83;;
36061;SDS011;22123;52.412;20.970;2023-08-21T06:05:30;8.38;;;5.03;;
36061;SDS011;22123;52.412;20.970;2023-08-21T06:07:56;7.05;;;5.00;;
36061;SDS011;22123;52.412;20.970;2023-08-21T06:10:22;7.07;;;3.53;;
36061;SDS011;22123;52.412;20.970;2023-08-21T06:12:48;9.48;;;4.82;;
36061;SDS011;22123;52.412;20.970;2023-08-21T06:15:14;8.95;;;4.25;;
36061;SDS011;22123;52.412;20.970;2023-08-21T06:17:40;6.45;;;4.40;;
36061;SDS011;22123;52.412;20.970;2023-08-21T06:20:06;7.38;;;3.40;;
36061;SDS011;22123;52.412;20.970;2023-08-21T06:22:32;8.02;;;4.20;;
36061;SDS011;22123;52.412;20.970;2023-08-21T06:24:58;5.22;;;3.45;;
36061;SDS011;22123;52.412;20.970;2023-08-21T06:27:24;6.18;;;4.28;;
36061;SDS011;22123;52.412;20.970;2023-08-21T06:29:51;8.90;;;4.10;;
36061;SDS011;22123;52.412;20.970;2023-08-21T06:32:17;7.18;;;4.80;;
36061;SDS011;22123;52.412;20.970;2023-08-21T06:34:46;8.07;;;4.60;;
36061;SDS011;22123;52.412;20.970;2023-08-21T06:37:12;7.15;;;3.92;;
36061;SDS011;22123;52.412;20.970;2023-08-21T06:39:37;6.30;;;4.97;;
36061;SDS011;22123;52.412;20.970;2023-08-21T06:42:04;6.20;;;4.22;;
36061;SDS011;22123;52.412;20.970;2023-08-21T06:44:30;7.03;;;5.43;;
36061;SDS011;22123;52.412;20.970;2023-08-21T06:46:56;6.00;;;3.95;;
36061;SDS011;22123;52.412;20.970;2023-08-21T06:49:21;7.80;;;4.88;;
36061;SDS011;22123;52.412;20.970;2023-08-21T06:51:47;4.88;;;3.70;;
36061;SDS011;22123;52.412;20.970;2023-08-21T06:54:13;6.10;;;4.60;;
36061;SDS011;22123;52.412;20.970;2023-08-21T06:56:39;6.45;;;4.18;;
36061;SDS011;22123;52.412;20.970;2023-08-21T06:59:05;6.35;;;5.07;;
36061;SDS011;22123;52.412;20.970;2023-08-21T07:01:31;8.25;;;4.78;;
36061;SDS011;22123;52.412;20.970;2023-08-21T07:03:57;6.13;;;3.92;;
36061;SDS011;22123;52.412;20.970;2023-08-21T07:06:23;6.15;;;4.72;;
36061;SDS011;22123;52.412;20.970;2023-08-21T07:08:49;6.85;;;5.47;;
36061;SDS011;22123;52.412;20.970;2023-08-21T07:11:15;6.45;;;3.72;;
36061;SDS011;22123;52.412;20.970;2023-08-21T07:13:41;6.20;;;4.47;;
36061;SDS011;22123;52.412;20.970;2023-08-21T07:16:07;6.28;;;3.95;;
36061;SDS011;22123;52.412;20.970;2023-08-21T07:18:33;6.25;;;4.35;;
36061;SDS011;22123;52.412;20.970;2023-08-21T07:21:00;5.97;;;4.57;;
36061;SDS011;22123;52.412;20.970;2023-08-21T07:23:26;5.38;;;3.88;;
36061;SDS011;22123;52.412;20.970;2023-08-21T07:25:52;6.15;;;4.43;;
36061;SDS011;22123;52.412;20.970;2023-08-21T07:28:18;6.80;;;5.18;;
36061;SDS011;22123;52.412;20.970;2023-08-21T07:30:44;7.18;;;5.03;;
36061;SDS011;22123;52.412;20.970;2023-08-21T07:33:10;7.82;;;4.65;;
36061;SDS011;22123;52.412;20.970;2023-08-21T07:35:35;6.88;;;4.80;;
36061;SDS011;22123;52.412;20.970;2023-08-21T07:38:02;5.65;;;4.55;;
36061;SDS011;22123;52.412;20.970;2023-08-21T07:40:28;6.05;;;4.85;;
36061;SDS011;22123;52.412;20.970;2023-08-21T07:42:54;6.97;;;4.68;;
36061;SDS011;22123;52.412;20.970;2023-08-21T07:45:20;7.18;;;4.85;;
36061;SDS011;22123;52.412;20.970;2023-08-21T07:47:46;7.43;;;5.50;;
36061;SDS011;22123;52.412;20.970;2023-08-21T07:50:12;6.43;;;3.67;;
36061;SDS011;22123;52.412;20.970;2023-08-21T07:52:38;7.53;;;4.57;;
36061;SDS011;22123;52.412;20.970;2023-08-21T07:55:04;6.38;;;4.82;;
36061;SDS011;22123;52.412;20.970;2023-08-21T07:57:30;6.38;;;4.95;;
36061;SDS011;22123;52.412;20.970;2023-08-21T07:59:56;6.32;;;4.30;;
36061;SDS011;22123;52.412;20.970;2023-08-21T08:02:22;6.95;;;4.47;;
36061;SDS011;22123;52.412;20.970;2023-08-21T08:04:48;9.18;;;5.00;;
36061;SDS011;22123;52.412;20.970;2023-08-21T08:07:14;6.50;;;4.72;;
36061;SDS011;22123;52.412;20.970;2023-08-21T08:09:40;7.88;;;4.90;;
36061;SDS011;22123;52.412;20.970;2023-08-21T08:12:06;5.60;;;5.07;;
36061;SDS011;22123;52.412;20.970;2023-08-21T08:14:32;6.20;;;4.43;;
36061;SDS011;22123;52.412;20.970;2023-08-21T08:16:58;7.47;;;4.45;;
36061;SDS011;22123;52.412;20.970;2023-08-21T08:19:24;6.82;;;4.85;;
36061;SDS011;22123;52.412;20.970;2023-08-21T08:21:50;6.07;;;5.03;;
36061;SDS011;22123;52.412;20.970;2023-08-21T08:24:15;5.22;;;4.32;;
36061;SDS011;22123;52.412;20.970;2023-08-21T08:26:41;7.03;;;4.75;;
36061;SDS011;22123;52.412;20.970;2023-08-21T08:29:07;5.78;;;4.60;;
36061;SDS011;22123;52.412;20.970;2023-08-21T08:31:33;7.30;;;4.18;;
36061;SDS011;22123;52.412;20.970;2023-08-21T08:33:59;7.30;;;4.70;;
36061;SDS011;22123;52.412;20.970;2023-08-21T08:36:25;5.65;;;4.05;;
36061;SDS011;22123;52.412;20.970;2023-08-21T08:38:52;7.07;;;4.07;;
36061;SDS011;22123;52.412;20.970;2023-08-21T08:41:25;4.90;;;3.85;;
36061;SDS011;22123;52.412;20.970;2023-08-21T08:44:06;4.30;;;3.67;;
36061;SDS011;22123;52.412;20.970;2023-08-21T08:46:33;7.18;;;3.67;;
36061;SDS011;22123;52.412;20.970;2023-08-21T08:48:59;4.90;;;3.60;;
36061;SDS011;22123;52.412;20.970;2023-08-21T08:51:25;5.78;;;3.55;;
36061;SDS011;22123;52.412;20.970;2023-08-21T08:53:54;5.72;;;4.03;;
36061;SDS011;22123;52.412;20.970;2023-08-21T08:56:21;8.43;;;4.40;;
36061;SDS011;22123;52.412;20.970;2023-08-21T08:58:47;8.70;;;4.85;;
36061;SDS011;22123;52.412;20.970;2023-08-21T09:01:14;5.72;;;3.55;;
36061;SDS011;22123;52.412;20.970;2023-08-21T09:03:40;6.50;;;4.20;;
36061;SDS011;22123;52.412;20.970;2023-08-21T09:06:06;10.43;;;4.90;;
36061;SDS011;22123;52.412;20.970;2023-08-21T09:08:32;5.57;;;3.95;;
36061;SDS011;22123;52.412;20.970;2023-08-21T09:11:00;5.28;;;3.35;;
36061;SDS011;22123;52.412;20.970;2023-08-21T09:13:36;4.90;;;3.20;;
36061;SDS011;22123;52.412;20.970;2023-08-21T09:16:03;3.58;;;2.88;;
36061;SDS011;22123;52.412;20.970;2023-08-21T09:18:32;5.50;;;3.70;;
36061;SDS011;22123;52.412;20.970;2023-08-21T09:21:01;4.75;;;3.60;;
36061;SDS011;22123;52.412;20.970;2023-08-21T09:23:28;4.90;;;3.53;;
36061;SDS011;22123;52.412;20.970;2023-08-21T09:25:54;6.43;;;3.33;;
36061;SDS011;22123;52.412;20.970;2023-08-21T09:28:20;7.60;;;4.40;;
36061;SDS011;22123;52.412;20.970;2023-08-21T09:30:47;5.47;;;3.42;;
36061;SDS011;22123;52.412;20.970;2023-08-21T09:33:19;5.18;;;2.70;;
36061;SDS011;22123;52.412;20.970;2023-08-21T09:35:46;3.92;;;2.85;;
36061;SDS011;22123;52.412;20.970;2023-08-21T09:38:12;4.55;;;3.05;;
36061;SDS011;22123;52.412;20.970;2023-08-21T09:40:39;4.22;;;2.83;;
36061;SDS011;22123;52.412;20.970;2023-08-21T09:43:05;5.28;;;3.28;;
36061;SDS011;22123;52.412;20.970;2023-08-21T09:45:31;4.25;;;2.65;;
36061;SDS011;22123;52.412;20.970;2023-08-21T09:47:58;3.83;;;2.42;;
36061;SDS011;22123;52.412;20.970;2023-08-21T09:50:25;4.38;;;3.38;;
36061;SDS011;22123;52.412;20.970;2023-08-21T09:52:54;3.83;;;2.85;;
36061;SDS011;22123;52.412;20.970;2023-08-21T09:55:21;3.97;;;2.40;;
36061;SDS011;22123;52.412;20.970;2023-08-21T09:57:48;3.95;;;2.85;;
36061;SDS011;22123;52.412;20.970;2023-08-21T10:00:14;5.35;;;3.58;;
36061;SDS011;22123;52.412;20.970;2023-08-21T10:02:41;5.57;;;3.78;;
36061;SDS011;22123;52.412;20.970;2023-08-21T10:05:08;4.22;;;2.85;;
36061;SDS011;22123;52.412;20.970;2023-08-21T10:07:35;2.75;;;2.25;;
36061;SDS011;22123;52.412;20.970;2023-08-21T10:10:01;3.42;;;1.98;;
36061;SDS011;22123;52.412;20.970;2023-08-21T10:12:27;3.72;;;2.15;;
36061;SDS011;22123;52.412;20.970;2023-08-21T10:14:53;8.10;;;2.20;;
36061;SDS011;22123;52.412;20.970;2023-08-21T10:17:19;4.40;;;2.55;;
36061;SDS011;22123;52.412;20.970;2023-08-21T10:19:51;4.15;;;2.35;;
36061;SDS011;22123;52.412;20.970;2023-08-21T10:22:35;3.05;;;2.00;;
36061;SDS011;22123;52.412;20.970;2023-08-21T10:25:28;2.00;;;1.23;;
36061;SDS011;22123;52.412;20.970;2023-08-21T10:27:55;1.85;;;1.30;;
36061;SDS011;22123;52.412;20.970;2023-08-21T10:30:24;2.47;;;1.65;;
36061;SDS011;22123;52.412;20.970;2023-08-21T10:32:51;2.10;;;1.60;;
36061;SDS011;22123;52.412;20.970;2023-08-21T10:35:20;3.03;;;2.00;;
36061;SDS011;22123;52.412;20.970;2023-08-21T10:40:37;2.28;;;1.42;;
36061;SDS011;22123;52.412;20.970;2023-08-21T10:43:36;1.42;;;1.33;;
36061;SDS011;22123;52.412;20.970;2023-08-21T10:46:04;6.10;;;1.80;;
36061;SDS011;22123;52.412;20.970;2023-08-21T10:48:30;1.70;;;1.60;;
36061;SDS011;22123;52.412;20.970;2023-08-21T10:50:56;1.75;;;1.50;;
36061;SDS011;22123;52.412;20.970;2023-08-21T10:53:26;1.83;;;1.65;;
36061;SDS011;22123;52.412;20.970;2023-08-21T10:55:53;1.48;;;1.38;;
36061;SDS011;22123;52.412;20.970;2023-08-21T10:58:19;1.80;;;1.70;;
36061;SDS011;22123;52.412;20.970;2023-08-21T11:00:45;1.50;;;1.40;;
36061;SDS011;22123;52.412;20.970;2023-08-21T11:03:11;2.00;;;1.77;;
36061;SDS011;22123;52.412;20.970;2023-08-21T11:05:37;2.50;;;1.73;;
36061;SDS011;22123;52.412;20.970;2023-08-21T11:08:03;1.70;;;1.60;;
36061;SDS011;22123;52.412;20.970;2023-08-21T11:10:30;2.15;;;1.52;;
36061;SDS011;22123;52.412;20.970;2023-08-21T11:12:57;1.92;;;1.40;;
36061;SDS011;22123;52.412;20.970;2023-08-21T11:15:27;2.17;;;1.63;;
36061;SDS011;22123;52.412;20.970;2023-08-21T11:17:57;1.40;;;1.27;;
36061;SDS011;22123;52.412;20.970;2023-08-21T11:20:31;2.17;;;1.50;;
36061;SDS011;22123;52.412;20.970;2023-08-21T11:23:07;1.35;;;1.23;;
36061;SDS011;22123;52.412;20.970;2023-08-21T11:25:33;1.67;;;1.35;;
36061;SDS011;22123;52.412;20.970;2023-08-21T11:28:00;1.33;;;1.20;;
36061;SDS011;22123;52.412;20.970;2023-08-21T11:30:26;2.00;;;1.40;;
36061;SDS011;22123;52.412;20.970;2023-08-21T11:33:08;1.65;;;1.10;;
36061;SDS011;22123;52.412;20.970;2023-08-21T11:35:34;2.25;;;1.30;;
36061;SDS011;22123;52.412;20.970;2023-08-21T11:38:01;1.45;;;1.30;;
36061;SDS011;22123;52.412;20.970;2023-08-21T11:40:27;1.65;;;1.35;;
36061;SDS011;22123;52.412;20.970;2023-08-21T11:42:53;2.03;;;1.33;;
36061;SDS011;22123;52.412;20.970;2023-08-21T11:45:25;2.58;;;1.10;;
36061;SDS011;22123;52.412;20.970;2023-08-21T11:47:51;1.23;;;1.13;;
36061;SDS011;22123;52.412;20.970;2023-08-21T11:50:21;2.22;;;1.35;;
36061;SDS011;22123;52.412;20.970;2023-08-21T11:52:50;1.50;;;1.33;;
36061;SDS011;22123;52.412;20.970;2023-08-21T11:55:17;2.45;;;1.40;;
36061;SDS011;22123;52.412;20.970;2023-08-21T11:57:49;1.73;;;1.30;;
36061;SDS011;22123;52.412;20.970;2023-08-21T12:00:16;1.45;;;1.35;;
36061;SDS011;22123;52.412;20.970;2023-08-21T12:02:43;1.58;;;1.45;;
36061;SDS011;22123;52.412;20.970;2023-08-21T12:05:14;1.50;;;1.35;;
36061;SDS011;22123;52.412;20.970;2023-08-21T12:07:40;1.27;;;1.00;;
36061;SDS011;22123;52.412;20.970;2023-08-21T12:10:06;1.35;;;1.08;;
36061;SDS011;22123;52.412;20.970;2023-08-21T12:12:32;2.25;;;1.00;;
36061;SDS011;22123;52.412;20.970;2023-08-21T12:14:58;1.00;;;0.90;;
36061;SDS011;22123;52.412;20.970;2023-08-21T12:17:24;1.30;;;1.20;;
36061;SDS011;22123;52.412;20.970;2023-08-21T12:19:50;1.42;;;0.70;;
36061;SDS011;22123;52.412;20.970;2023-08-21T12:22:16;1.65;;;1.00;;
36061;SDS011;22123;52.412;20.970;2023-08-21T12:24:42;1.33;;;0.80;;
36061;SDS011;22123;52.412;20.970;2023-08-21T12:27:07;1.45;;;1.10;;
36061;SDS011;22123;52.412;20.970;2023-08-21T12:29:36;1.80;;;1.00;;
36061;SDS011;22123;52.412;20.970;2023-08-21T12:32:02;1.40;;;1.05;;
36061;SDS011;22123;52.412;20.970;2023-08-21T12:34:28;0.70;;;0.70;;
36061;SDS011;22123;52.412;20.970;2023-08-21T12:36:54;1.10;;;0.98;;
36061;SDS011;22123;52.412;20.970;2023-08-21T12:39:20;0.70;;;0.70;;
36061;SDS011;22123;52.412;20.970;2023-08-21T12:41:46;1.40;;;1.00;;
36061;SDS011;22123;52.412;20.970;2023-08-21T12:44:12;3.53;;;1.00;;
36061;SDS011;22123;52.412;20.970;2023-08-21T12:46:38;2.03;;;0.95;;
36061;SDS011;22123;52.412;20.970;2023-08-21T12:49:03;0.73;;;0.73;;
36061;SDS011;22123;52.412;20.970;2023-08-21T12:51:30;0.80;;;0.70;;
36061;SDS011;22123;52.412;20.970;2023-08-21T12:53:56;0.75;;;0.55;;
36061;SDS011;22123;52.412;20.970;2023-08-21T12:56:21;1.20;;;1.10;;
36061;SDS011;22123;52.412;20.970;2023-08-21T12:58:47;0.82;;;0.73;;
36061;SDS011;22123;52.412;20.970;2023-08-21T13:01:13;1.17;;;1.00;;
36061;SDS011;22123;52.412;20.970;2023-08-21T13:03:43;0.85;;;0.77;;
36061;SDS011;22123;52.412;20.970;2023-08-21T13:06:12;0.82;;;0.77;;
36061;SDS011;22123;52.412;20.970;2023-08-21T13:08:38;1.00;;;0.95;;
36061;SDS011;22123;52.412;20.970;2023-08-21T13:11:04;1.00;;;0.85;;
36061;SDS011;22123;52.412;20.970;2023-08-21T13:13:30;0.80;;;0.75;;
36061;SDS011;22123;52.412;20.970;2023-08-21T13:15:55;1.38;;;1.00;;
36061;SDS011;22123;52.412;20.970;2023-08-21T13:18:21;0.82;;;0.50;;
36061;SDS011;22123;52.412;20.970;2023-08-21T13:20:47;0.68;;;0.65;;
36061;SDS011;22123;52.412;20.970;2023-08-21T13:23:13;2.00;;;0.90;;
36061;SDS011;22123;52.412;20.970;2023-08-21T13:25:39;0.63;;;0.63;;
36061;SDS011;22123;52.412;20.970;2023-08-21T13:28:05;0.60;;;0.57;;
36061;SDS011;22123;52.412;20.970;2023-08-21T13:30:31;0.82;;;0.73;;
36061;SDS011;22123;52.412;20.970;2023-08-21T13:32:57;0.82;;;0.63;;
36061;SDS011;22123;52.412;20.970;2023-08-21T13:35:22;0.68;;;0.68;;
36061;SDS011;22123;52.412;20.970;2023-08-21T13:37:49;1.27;;;0.77;;
36061;SDS011;22123;52.412;20.970;2023-08-21T13:40:15;0.98;;;0.60;;
36061;SDS011;22123;52.412;20.970;2023-08-21T13:42:44;1.70;;;1.35;;
36061;SDS011;22123;52.412;20.970;2023-08-21T13:45:13;0.70;;;0.50;;
36061;SDS011;22123;52.412;20.970;2023-08-21T13:47:41;1.48;;;0.80;;
36061;SDS011;22123;52.412;20.970;2023-08-21T13:50:08;0.70;;;0.57;;
36061;SDS011;22123;52.412;20.970;2023-08-21T13:52:34;0.82;;;0.70;;
36061;SDS011;22123;52.412;20.970;2023-08-21T13:55:01;0.75;;;0.75;;
36061;SDS011;22123;52.412;20.970;2023-08-21T13:57:28;0.60;;;0.60;;
36061;SDS011;22123;52.412;20.970;2023-08-21T13:59:54;1.00;;;0.60;;
36061;SDS011;22123;52.412;20.970;2023-08-21T14:02:20;0.80;;;0.80;;
36061;SDS011;22123;52.412;20.970;2023-08-21T14:04:46;1.63;;;0.75;;
36061;SDS011;22123;52.412;20.970;2023-08-21T14:07:12;1.48;;;0.70;;
36061;SDS011;22123;52.412;20.970;2023-08-21T14:09:38;1.15;;;1.05;;
36061;SDS011;22123;52.412;20.970;2023-08-21T14:12:04;1.50;;;0.60;;
36061;SDS011;22123;52.412;20.970;2023-08-21T14:14:31;0.60;;;0.60;;
36061;SDS011;22123;52.412;20.970;2023-08-21T14:16:56;0.88;;;0.60;;
36061;SDS011;22123;52.412;20.970;2023-08-21T14:19:22;0.90;;;0.90;;
36061;SDS011;22123;52.412;20.970;2023-08-21T14:21:53;0.70;;;0.70;;
36061;SDS011;22123;52.412;20.970;2023-08-21T14:24:19;0.55;;;0.55;;
36061;SDS011;22123;52.412;20.970;2023-08-21T14:26:45;0.63;;;0.63;;
36061;SDS011;22123;52.412;20.970;2023-08-21T14:29:11;0.70;;;0.70;;
36061;SDS011;22123;52.412;20.970;2023-08-21T14:31:37;1.08;;;0.70;;
36061;SDS011;22123;52.412;20.970;2023-08-21T14:34:02;1.20;;;0.80;;
36061;SDS011;22123;52.412;20.970;2023-08-21T14:36:28;2.28;;;0.77;;
36061;SDS011;22123;52.412;20.970;2023-08-21T14:38:54;0.70;;;0.70;;
36061;SDS011;22123;52.412;20.970;2023-08-21T14:41:21;1.20;;;1.10;;
36061;SDS011;22123;52.412;20.970;2023-08-21T14:43:47;0.98;;;0.50;;
36061;SDS011;22123;52.412;20.970;2023-08-21T14:46:13;0.98;;;0.77;;
36061;SDS011;22123;52.412;20.970;2023-08-21T14:48:39;0.88;;;0.80;;
36061;SDS011;22123;52.412;20.970;2023-08-21T14:51:05;0.80;;;0.60;;
36061;SDS011;22123;52.412;20.970;2023-08-21T14:53:31;0.82;;;0.73;;
36061;SDS011;22123;52.412;20.970;2023-08-21T14:55:57;2.10;;;0.80;;
36061;SDS011;22123;52.412;20.970;2023-08-21T14:58:23;1.48;;;0.90;;
36061;SDS011;22123;52.412;20.970;2023-08-21T15:00:49;0.85;;;0.85;;
36061;SDS011;22123;52.412;20.970;2023-08-21T15:03:19;0.80;;;0.80;;
36061;SDS011;22123;52.412;20.970;2023-08-21T15:05:45;1.05;;;0.70;;
36061;SDS011;22123;52.412;20.970;2023-08-21T15:08:11;1.08;;;0.70;;
36061;SDS011;22123;52.412;20.970;2023-08-21T15:10:37;0.75;;;0.73;;
36061;SDS011;22123;52.412;20.970;2023-08-21T15:13:03;0.90;;;0.70;;
36061;SDS011;22123;52.412;20.970;2023-08-21T15:15:29;0.80;;;0.80;;
36061;SDS011;22123;52.412;20.970;2023-08-21T15:17:54;0.70;;;0.70;;
36061;SDS011;22123;52.412;20.970;2023-08-21T15:20:20;0.85;;;0.73;;
36061;SDS011;22123;52.412;20.970;2023-08-21T15:22:46;0.80;;;0.80;;
36061;SDS011;22123;52.412;20.970;2023-08-21T15:25:12;0.55;;;0.55;;
36061;SDS011;22123;52.412;20.970;2023-08-21T15:27:38;0.82;;;0.82;;
36061;SDS011;22123;52.412;20.970;2023-08-21T15:30:05;1.35;;;1.08;;
36061;SDS011;22123;52.412;20.970;2023-08-21T15:32:31;0.70;;;0.70;;
36061;SDS011;22123;52.412;20.970;2023-08-21T15:34:57;0.82;;;0.68;;
36061;SDS011;22123;52.412;20.970;2023-08-21T15:37:23;0.68;;;0.68;;